Latest Coastal Weather Observations for Newcastle Nobbys

IDN60701

Issued at 11:31 pm EDT Tuesday 31 March 2015 (issued every 10 minutes, with the page automatically refreshed every 10 minutes)

About coastal observations | Map of coastal stations | Coastal observations for NSW | Marine services | Other Formats
Station Details ID: 061055 Name: NEWCASTLE NOBBYS SIGNAL STATION AWS Lat: -32.92 Lon: 151.80 Height: 33.0 m
Data from the previous 72 hours. | See also: Recent months at Newcastle Nobbys
Date/Time
EDT
Temp

°C
Wind Pressure Rain
since 9am
mm
Weather Cloud Vis
km
Sea
Height
m
Swell
Dir
 
Speed
knots
Gust
knots
hPa Trend Height
m
Period
s
Dir
31/11:30pm 20.2 NNW 3 4 - - 8.8 - - - - - - -
31/11:00pm 20.4 NE 4 6 - - 8.8 - - - - - - -
31/10:30pm 20.3 ENE 6 8 - - 8.8 - - - - - - -
31/10:00pm 20.1 NE 8 9 - - 8.8 - - - - - - -
31/09:30pm 20.8 NE 7 8 - - 8.8 - - - - - - -
31/09:00pm 21.0 NE 7 9 - - 8.8 - - - - - - -
31/08:30pm 21.1 E 11 13 - - 8.8 - - - - - - -
31/08:00pm 20.4 ENE 13 15 - - 8.8 - - - - - - -
31/07:30pm 20.2 SE 12 16 - - 8.8 - - - - - - -
31/07:00pm 19.3 SE 16 20 - - 8.8 - - - - - - -
31/06:51pm 19.2 SE 18 22 - - 8.8 - - - - - - -
31/06:30pm 19.6 ESE 19 27 - - 4.6 - - - - - - -
31/06:28pm 19.9 SE 18 24 - - 3.8 - - - - - - -
31/06:12pm 20.9 ESE 16 24 - - 2.2 - - - - - - -
31/06:08pm 21.3 ESE 16 24 - - 1.0 - - - - - - -
31/06:00pm 22.3 SE 14 21 - - 0.0 - - - - - - -
31/05:30pm 22.3 SE 13 15 - - 0.0 - - - - - - -
31/05:00pm 22.4 SE 10 12 - - 0.0 - - - - - - -
31/04:30pm 22.1 SE 8 9 - - 0.0 - - - - - - -
31/04:00pm 21.9 SSE 7 9 - - 0.0 - - - - - - -
31/03:30pm 22.0 SE 6 8 - - 0.0 - - - - - - -
31/03:00pm 21.6 E 7 9 - - 0.0 - - - - - - -
31/02:30pm 21.9 ENE 7 10 - - 0.0 - - - - - - -
31/02:00pm 19.5 NE 5 10 - - 0.0 - - - - - - -
31/01:30pm 20.7 E 13 19 - - 0.0 - - - - - - -
31/01:00pm 21.7 E 10 12 - - 0.0 - - - - - - -
31/12:30pm 21.7 E 9 12 - - 0.0 - - - - - - -
31/12:00pm 21.5 E 10 12 - - 0.0 - - - - - - -
31/11:30am 21.5 ENE 10 11 - - 0.0 - - - - - - -
31/11:00am 20.9 ENE 9 12 - - 0.0 - - - - - - -
31/10:30am 21.2 ENE 13 17 - - 0.0 - - - - - - -
31/10:00am 20.7 ENE 13 15 - - 0.0 - - - - - - -
31/09:30am 20.7 ENE 16 20 - - 0.0 - - - - - - -
31/09:00am 20.4 E 15 18 - - 13.8 Recent precip. - - - - - -
31/08:30am 19.6 ESE 14 18 - - 13.8 - - - - - - -
31/08:00am 18.8 ESE 10 13 - - 13.4 - - - - - - -
31/07:30am 19.0 SE 16 21 - - 10.8 - - - - - - -
31/07:00am 19.8 SE 16 18 - - 7.8 - - - - - - -
31/06:30am 20.1 ESE 18 20 - - 7.6 - - - - - - -
31/06:00am 20.4 SSE 12 14 - - 7.6 - - - - - - -
31/05:30am 20.3 SSE 9 11 - - 7.6 - - - - - - -
31/05:00am 20.3 SSE 10 11 - - 7.6 - - - - - - -
31/04:30am 20.2 S 11 13 - - 7.6 - - - - - - -
31/04:00am 20.3 S 11 13 - - 7.6 - - - - - - -
31/03:30am 20.0 S 10 12 - - 7.6 - - - - - - -
31/03:00am 19.7 SSW 5 7 - - 7.6 - - - - - - -
31/02:30am 19.6 SSW 4 5 - - 7.6 - - - - - - -
31/02:00am 19.5 SSW 4 5 - - 7.6 - - - - - - -
31/01:30am 18.9 SW 3 4 - - 7.6 - - - - - - -
31/01:00am 18.9 SW 2 4 - - 7.6 - - - - - - -
31/12:30am 18.6 NW 2 3 - - 7.6 - - - - - - -
31/12:00am 18.4 NW 4 6 - - 7.6 Recent precip. - - - - - -
 
Date/Time
EDT
Temp

°C
Wind Pressure Rain
since 9am
mm
Weather Cloud Vis
km
Sea
Height
m
Swell
Dir
 
Speed
knots
Gust
knots
hPa Trend Height
m
Period
s
Dir
30/11:30pm 18.3 NW 5 7 - - 7.4 - - - - - - -
30/11:00pm 18.6 NW 6 8 - - 7.4 - - - - - - -
30/10:30pm 18.6 N 9 12 - - 7.2 - - - - - - -
30/10:00pm 18.7 N 11 14 - - 6.8 - - - - - - -
30/09:30pm 19.3 N 13 17 - - 6.4 - - - - - - -
30/09:00pm 19.6 N 8 10 - - 6.2 Recent precip. - - - - - -
30/08:30pm 19.8 NNE 11 15 - - 6.0 - - - - - - -
30/08:00pm 20.7 NE 11 15 - - 5.8 - - - - - - -
30/07:30pm 21.2 NE 7 10 - - 5.0 - - - - - - -
30/07:00pm 21.0 ENE 14 20 - - 1.8 - - - - - - -
30/06:30pm 22.3 ENE 8 10 - - 0.0 - - - - - - -
30/06:00pm 22.1 ENE 12 13 - - 0.0 - - - - - - -
30/05:30pm 22.3 E 13 15 - - 0.0 - - - - - - -
30/05:00pm 22.6 E 14 16 - - 0.0 - - - - - - -
30/04:30pm 22.6 E 11 12 - - 0.0 - - - - - - -
30/04:00pm 22.8 E 11 13 - - 0.0 - - - - - - -
30/03:30pm 22.8 ESE 11 12 - - 0.0 - - - - - - -
30/03:00pm 22.8 ESE 11 13 - - 0.0 - - - - - - -
30/02:30pm 23.0 ESE 11 12 - - 0.0 - - - - - - -
30/02:00pm 23.3 SE 9 11 - - 0.0 - - - - - - -
30/01:30pm 23.5 ESE 7 9 - - 0.0 - - - - - - -
30/01:00pm 22.7 E 9 12 - - 0.0 - - - - - - -
30/12:30pm 23.5 E 11 13 - - 0.0 - - - - - - -
30/12:00pm 22.4 ENE 6 8 - - 0.0 - - - - - - -
30/11:30am 21.5 N 2 5 - - 0.0 - - - - - - -
30/11:00am 20.8 N 7 9 - - 0.0 - - - - - - -
30/10:30am 21.2 N 5 7 - - 0.0 - - - - - - -
30/10:00am 21.6 SW 6 8 - - 0.0 - - - - - - -
30/09:30am 20.3 SW 6 8 - - 0.0 - - - - - - -
30/09:00am 20.2 W 11 16 - - 0.0 - - - - - - -
30/08:30am 20.8 WNW 9 11 - - 0.0 - - - - - - -
30/08:00am 20.4 WNW 6 8 - - 0.0 - - - - - - -
30/07:30am 20.5 W 5 6 - - 0.0 - - - - - - -
30/07:00am 21.1 W 3 5 - - 0.0 - - - - - - -
30/06:30am 22.2 NE 2 3 - - 0.0 - - - - - - -
30/06:00am 22.2 E 2 3 - - 0.0 - - - - - - -
30/05:30am 22.4 ENE 3 4 - - 0.0 - - - - - - -
30/05:00am 22.2 ENE 5 6 - - 0.0 - - - - - - -
30/04:30am 22.0 NE 5 6 - - 0.0 - - - - - - -
30/04:00am 22.0 ENE 4 5 - - 0.0 - - - - - - -
30/03:30am 21.9 ENE 5 6 - - 0.0 - - - - - - -
30/03:00am 21.8 ENE 5 7 - - 0.0 - - - - - - -
30/02:30am 21.7 ENE 5 7 - - 0.0 - - - - - - -
30/02:00am 21.8 NE 4 6 - - 0.0 - - - - - - -
30/01:30am 21.9 NE 4 5 - - 0.0 - - - - - - -
30/01:00am 21.7 NE 5 6 - - 0.0 - - - - - - -
30/12:30am 21.5 NE 4 5 - - 0.0 - - - - - - -
30/12:00am 21.4 NNE 7 9 - - 0.0 - - - - - - -
 
Date/Time
EDT
Temp

°C
Wind Pressure Rain
since 9am
mm
Weather Cloud Vis
km
Sea
Height
m
Swell
Dir
 
Speed
knots
Gust
knots
hPa Trend Height
m
Period
s
Dir
29/11:30pm 21.7 NE 6 9 - - 0.0 - - - - - - -
29/11:00pm 21.8 NE 8 11 - - 0.0 - - - - - - -
29/10:30pm 22.0 NE 8 11 - - 0.0 - - - - - - -
29/10:00pm 22.0 NE 8 12 - - 0.0 - - - - - - -
29/09:30pm 22.3 NE 9 12 - - 0.0 - - - - - - -
29/09:00pm 22.4 NE 11 13 - - 0.0 - - - - - - -
29/08:30pm 22.4 NE 11 15 - - 0.0 - - - - - - -
29/08:00pm 22.5 ENE 11 15 - - 0.0 - - - - - - -
29/07:30pm 22.7 ENE 12 16 - - 0.0 - - - - - - -
29/07:00pm 22.6 ENE 14 17 - - 0.0 - - - - - - -
29/06:30pm 22.8 ENE 14 17 - - 0.0 - - - - - - -
29/06:00pm 23.2 E 13 15 - - 0.0 - - - - - - -
29/05:30pm 23.1 E 13 16 - - 0.0 - - - - - - -
29/05:00pm 23.4 E 13 15 - - 0.0 - - - - - - -
29/04:30pm 23.4 E 14 16 - - 0.0 - - - - - - -
29/04:00pm 23.2 E 15 17 - - 0.0 - - - - - - -
29/03:30pm 23.6 E 15 17 - - 0.0 - - - - - - -
29/03:00pm 23.1 E 14 17 - - 0.0 - - - - - - -
29/02:30pm 23.1 E 14 16 - - 0.0 - - - - - - -
29/02:00pm 24.2 E 12 15 - - 0.0 - - - - - - -
29/01:30pm 23.9 E 11 13 - - 0.0 - - - - - - -
29/01:00pm 23.7 ESE 9 11 - - 0.0 - - - - - - -
29/12:30pm 24.1 E 7 9 - - 0.0 - - - - - - -
29/12:00pm 24.0 E 7 8 - - 0.0 - - - - - - -
29/11:30am 23.9 ESE 5 6 - - 0.0 - - - - - - -
29/11:00am 23.8 E 3 4 - - 0.0 - - - - - - -
29/10:30am 21.9 N 2 3 - - 0.0 - - - - - - -
29/10:00am 21.0 NNW 3 4 - - 0.0 - - - - - - -
29/09:30am 19.9 NNW 3 4 - - 0.0 - - - - - - -
29/09:00am 20.4 N 3 4 - - 0.0 - - - - - - -
29/08:30am 19.3 NNW 3 4 - - 0.0 - - - - - - -
29/08:00am 18.8 WNW 3 4 - - 0.0 - - - - - - -
29/07:30am 18.7 NW 4 5 - - 0.0 - - - - - - -
29/07:00am 18.9 NNW 4 5 - - 0.0 - - - - - - -
29/06:30am 18.8 CALM 0 1 - - 0.0 - - - - - - -
29/06:00am 18.9 WNW 2 3 - - 0.0 - - - - - - -
29/05:30am 18.8 WNW 3 3 - - 0.0 - - - - - - -
29/05:00am 18.8 NW 3 4 - - 0.0 - - - - - - -
29/04:30am 18.8 WNW 3 4 - - 0.0 - - - - - - -
29/04:00am 19.9 NE 5 9 - - 0.0 - - - - - - -
29/03:30am 20.6 E 7 9 - - 0.0 - - - - - - -
29/03:00am 20.6 E 7 9 - - 0.0 - - - - - - -
29/02:30am 20.7 E 7 9 - - 0.0 - - - - - - -
29/02:00am 20.8 E 7 10 - - 0.0 - - - - - - -
29/01:30am 20.8 E 8 10 - - 0.0 - - - - - - -
29/01:00am 20.7 E 8 9 - - 0.0 - - - - - - -
29/12:30am 20.7 E 8 10 - - 0.0 - - - - - - -
29/12:00am 20.7 E 8 10 - - 0.0 - - - - - - -

Other Formats:

Comma delimited format used in spreadsheet applications
http://www.bom.gov.au/fwo/IDN60701/IDN60701.94774.axf

JavaScript Object Notation format (JSON) in row-major order
http://www.bom.gov.au/fwo/IDN60701/IDN60701.94774.json